createdAt,value
2022-10-01T00:02:07.180Z,99386.13
2022-10-01T00:04:35.175Z,99385.28
2022-10-01T00:07:04.665Z,99379.19
2022-10-01T00:09:32.035Z,99380.94
2022-10-01T00:11:59.834Z,99380.06
2022-10-01T00:14:27.558Z,99383.53
2022-10-01T00:16:54.634Z,99382.63
2022-10-01T00:19:22.778Z,99383.50
2022-10-01T00:21:49.423Z,99387.81
2022-10-01T00:24:16.031Z,99380.78
2022-10-01T00:26:42.769Z,99379.94
2022-10-01T00:29:13.740Z,99372.13
2022-10-01T00:31:40.447Z,99377.34
2022-10-01T00:34:07.090Z,99372.91
2022-10-01T00:36:34.219Z,99373.72
2022-10-01T00:39:01.030Z,99369.31
2022-10-01T00:41:29.185Z,99377.16
2022-10-01T00:43:57.360Z,99373.69
2022-10-01T00:46:26.855Z,99372.88
2022-10-01T00:49:08.983Z,99370.31
2022-10-01T00:51:40.825Z,99372.03
2022-10-01T00:54:09.630Z,99372.00
2022-10-01T00:56:36.887Z,99377.22
2022-10-01T00:59:04.544Z,99371.13
2022-10-01T01:01:31.613Z,99364.22
2022-10-01T01:03:58.597Z,99372.91
2022-10-01T01:06:25.322Z,99372.09
2022-10-01T01:08:55.231Z,99368.63
2022-10-01T01:11:22.718Z,99366.84
2022-10-01T01:13:55.422Z,99370.28
2022-10-01T01:16:27.943Z,99365.06
2022-10-01T01:18:54.565Z,99372.06
2022-10-01T01:21:24.847Z,99367.75
2022-10-01T01:24:12.076Z,99360.88
2022-10-01T01:26:45.729Z,99367.06
2022-10-01T01:29:18.275Z,99363.72
2022-10-01T01:31:48.815Z,99370.72
2022-10-01T01:34:21.821Z,99367.13
2022-10-01T01:36:54.244Z,99363.56
2022-10-01T01:39:23.140Z,99365.22
2022-10-01T01:41:52.258Z,99362.63
2022-10-01T01:44:22.927Z,99360.97
2022-10-01T01:46:50.334Z,99371.59
2022-10-01T01:49:20.243Z,99362.38
2022-10-01T01:52:05.139Z,99353.03
2022-10-01T01:54:32.117Z,99357.63
2022-10-01T01:56:59.502Z,99351.66
2022-10-01T01:59:27.236Z,99357.81
2022-10-01T02:01:54.136Z,99351.84
2022-10-01T02:04:26.651Z,99351.94
2022-10-01T02:07:03.306Z,99351.91
2022-10-01T02:09:36.075Z,99340.63
2022-10-01T02:12:02.639Z,99344.09
2022-10-01T02:14:40.553Z,99338.88
2022-10-01T02:17:27.548Z,99344.03
2022-10-01T02:19:58.696Z,99342.31
2022-10-01T02:22:32.704Z,99341.53
2022-10-01T02:25:02.015Z,99329.44
2022-10-01T02:27:36.710Z,99330.31
2022-10-01T02:30:07.885Z,99335.53
2022-10-01T02:32:35.597Z,99332.03
2022-10-01T02:35:03.119Z,99324.13
2022-10-01T02:37:30.553Z,99324.91
2022-10-01T02:39:57.967Z,99326.69
2022-10-01T02:42:27.220Z,99325.84
2022-10-01T02:44:55.778Z,99328.47
2022-10-01T02:47:26.933Z,99325.03
2022-10-01T02:49:54.215Z,99324.22
2022-10-01T02:52:20.972Z,99319.09
2022-10-01T02:54:54.917Z,99317.41
2022-10-01T02:57:24.907Z,99309.63
2022-10-01T02:59:51.897Z,99310.50
2022-10-01T03:02:19.374Z,99309.63
2022-10-01T03:04:48.110Z,99303.53
2022-10-01T03:07:15.959Z,99308.75
2022-10-01T03:09:42.655Z,99302.63
2022-10-01T03:12:10.649Z,99307.00
2022-10-01T03:14:39.374Z,99307.00
2022-10-01T03:17:07.028Z,99306.13
2022-10-01T03:19:33.742Z,99304.41
2022-10-01T03:22:00.358Z,99310.47
2022-10-01T03:24:26.995Z,99311.31
2022-10-01T03:26:55.392Z,99306.13
2022-10-01T03:29:22.050Z,99311.31
2022-10-01T03:31:48.688Z,99313.06
2022-10-01T03:34:15.344Z,99309.63
2022-10-01T03:36:41.935Z,99307.03
2022-10-01T03:39:08.546Z,99304.44
2022-10-01T03:41:35.519Z,99296.63
2022-10-01T03:44:02.403Z,99299.22
2022-10-01T03:46:29.241Z,99294.00
2022-10-01T03:48:57.285Z,99297.47
2022-10-01T03:51:24.199Z,99298.31
2022-10-01T03:53:50.877Z,99297.44
2022-10-01T03:56:18.467Z,99296.50
2022-10-01T03:58:45.102Z,99293.06
2022-10-01T04:01:11.742Z,99300.84
2022-10-01T04:03:38.376Z,99297.38
2022-10-01T04:06:05.049Z,99299.06
2022-10-01T04:08:31.698Z,99299.06
2022-10-01T04:10:58.464Z,99299.88
2022-10-01T04:13:25.160Z,99303.38
2022-10-01T04:15:51.761Z,99303.38
2022-10-01T04:18:20.703Z,99299.88
2022-10-01T04:20:47.723Z,99307.69
2022-10-01T04:23:14.830Z,99306.00
2022-10-01T04:25:41.467Z,99306.06
2022-10-01T04:28:10.266Z,99304.31
2022-10-01T04:30:38.502Z,99303.50
2022-10-01T04:33:06.156Z,99301.78
2022-10-01T04:35:33.308Z,99307.00
2022-10-01T04:38:03.376Z,99304.41
2022-10-01T04:40:30.611Z,99307.91
2022-10-01T04:42:57.492Z,99297.53
2022-10-01T04:45:24.372Z,99299.34
2022-10-01T04:47:51.862Z,99292.47
2022-10-01T04:50:19.048Z,99297.75
2022-10-01T04:52:47.107Z,99304.69
2022-10-01T04:55:14.438Z,99302.94
2022-10-01T04:57:41.251Z,99300.38
2022-10-01T05:00:09.437Z,99298.72
2022-10-01T05:02:36.182Z,99300.50
2022-10-01T05:05:04.102Z,99303.16
2022-10-01T05:07:34.528Z,99301.47
2022-10-01T05:10:01.171Z,99301.47
2022-10-01T05:12:28.378Z,99301.50
2022-10-01T05:14:55.748Z,99301.56
2022-10-01T05:17:23.071Z,99300.75
2022-10-01T05:19:50.312Z,99305.97
2022-10-01T05:22:17.004Z,99308.59
2022-10-01T05:24:43.788Z,99298.19
2022-10-01T05:27:12.186Z,99299.88
2022-10-01T05:29:40.502Z,99286.00
2022-10-01T05:32:08.045Z,99293.88
2022-10-01T05:34:35.325Z,99287.78
2022-10-01T05:37:02.921Z,99290.41
2022-10-01T05:39:30.035Z,99293.00
2022-10-01T05:42:06.203Z,99284.38
2022-10-01T05:44:37.837Z,99284.38
2022-10-01T05:47:07.618Z,99277.47
2022-10-01T05:49:34.370Z,99276.53
2022-10-01T05:52:01.192Z,99275.59
2022-10-01T05:54:29.493Z,99276.44
2022-10-01T05:56:58.833Z,99270.34
2022-10-01T05:59:28.400Z,99271.19
2022-10-01T06:01:57.769Z,99274.56
2022-10-01T06:04:24.577Z,99265.91
2022-10-01T06:06:51.162Z,99271.13
2022-10-01T06:09:17.901Z,99268.50
2022-10-01T06:11:45.219Z,99273.66
2022-10-01T06:14:11.818Z,99273.56
2022-10-01T06:16:38.450Z,99272.66
2022-10-01T06:19:05.143Z,99273.50
2022-10-01T06:21:32.261Z,99276.91
2022-10-01T06:23:59.155Z,99269.09
2022-10-01T06:26:25.997Z,99266.44
2022-10-01T06:28:52.771Z,99273.38
2022-10-01T06:31:19.617Z,99262.88
2022-10-01T06:33:46.357Z,99252.41
2022-10-01T06:36:13.049Z,99257.53
2022-10-01T06:38:39.642Z,99251.41
2022-10-01T06:41:06.284Z,99246.97
2022-10-01T06:43:33.357Z,99242.56
2022-10-01T06:46:03.908Z,99240.75
2022-10-01T06:48:31.440Z,99245.94
2022-10-01T06:50:58.877Z,99248.53
2022-10-01T06:53:27.525Z,99244.97
2022-10-01T06:55:54.645Z,99245.84
2022-10-01T06:58:22.416Z,99242.31
2022-10-01T07:00:49.926Z,99231.94
2022-10-01T07:03:20.873Z,99235.44
2022-10-01T07:05:47.982Z,99235.34
2022-10-01T07:08:14.582Z,99230.06
2022-10-01T07:10:41.710Z,99230.84
2022-10-01T07:13:09.280Z,99233.38
2022-10-01T07:15:36.366Z,99223.84
2022-10-01T07:18:03.201Z,99223.84
2022-10-01T07:20:33.192Z,99222.03
2022-10-01T07:23:00.023Z,99216.00
2022-10-01T07:25:27.233Z,99215.13
2022-10-01T07:27:55.049Z,99222.03
2022-10-01T07:30:23.978Z,99211.72
2022-10-01T07:32:50.679Z,99214.34
2022-10-01T07:35:18.023Z,99218.72
2022-10-01T07:37:44.642Z,99207.44
2022-10-01T07:40:11.243Z,99204.78
2022-10-01T07:42:38.535Z,99211.72
2022-10-01T07:45:06.782Z,99199.50
2022-10-01T07:47:33.409Z,99199.50
2022-10-01T07:50:00.068Z,99200.28
2022-10-01T07:52:26.690Z,99192.41
2022-10-01T07:54:53.653Z,99192.44
2022-10-01T07:57:20.234Z,99187.25
2022-10-01T07:59:46.850Z,99181.13
2022-10-01T08:02:17.019Z,99181.91
2022-10-01T08:05:02.169Z,99173.19
2022-10-01T08:07:31.718Z,99178.22
2022-10-01T08:09:58.294Z,99165.94
2022-10-01T08:12:28.298Z,99159.75
2022-10-01T08:14:55.311Z,99162.25
2022-10-01T08:17:24.963Z,99160.47
2022-10-01T08:19:53.978Z,99159.59
2022-10-01T08:22:20.922Z,99157.78
2022-10-01T08:24:47.948Z,99153.47
2022-10-01T08:27:14.893Z,99147.34
2022-10-01T08:29:43.286Z,99142.94
2022-10-01T08:32:10.710Z,99137.66
2022-10-01T08:34:37.608Z,99135.03
2022-10-01T08:37:04.197Z,99128.78
2022-10-01T08:39:30.819Z,99130.31
2022-10-01T08:42:08.281Z,99118.84
2022-10-01T08:44:45.729Z,99128.25
2022-10-01T08:47:24.977Z,99121.16
2022-10-01T08:49:54.222Z,99124.47
2022-10-01T08:52:23.381Z,99119.97
2022-10-01T08:54:55.003Z,99125.91
2022-10-01T08:57:24.053Z,99125.81
2022-10-01T08:59:50.657Z,99122.47
2022-10-01T09:02:19.417Z,99120.94
2022-10-01T09:04:46.717Z,99112.41
2022-10-01T09:07:36.508Z,99117.72
2022-10-01T09:10:21.317Z,99114.25
2022-10-01T09:12:48.375Z,99106.38
2022-10-01T09:15:15.614Z,99112.41
2022-10-01T09:17:45.887Z,99107.38
2022-10-01T09:20:32.646Z,99112.69
2022-10-01T09:23:17.917Z,99105.78
2022-10-01T09:25:45.945Z,99100.44
2022-10-01T09:28:12.577Z,99096.94
2022-10-01T09:30:42.764Z,99090.88
2022-10-01T09:33:16.138Z,99084.78
2022-10-01T09:35:49.037Z,99082.19
2022-10-01T09:38:24.765Z,99081.31
2022-10-01T09:40:55.467Z,99081.31
2022-10-01T09:43:37.200Z,99077.81
2022-10-01T09:46:07.114Z,99070.75
2022-10-01T09:49:00.000Z,99066.28
2022-10-01T09:51:46.539Z,99056.69
2022-10-01T09:54:17.265Z,99053.13
2022-10-01T09:56:49.636Z,99053.91
2022-10-01T09:59:22.620Z,99051.25
2022-10-01T10:01:51.860Z,99046.03
2022-10-01T10:04:23.766Z,99043.41
2022-10-01T10:06:51.355Z,99035.59
2022-10-01T10:09:22.275Z,99034.00
2022-10-01T10:11:49.222Z,99031.41
2022-10-01T10:14:25.002Z,99016.63
2022-10-01T10:16:51.629Z,99023.47
2022-10-01T10:19:24.392Z,99009.38
2022-10-01T10:21:56.650Z,99010.13
2022-10-01T10:24:33.302Z,99002.22
2022-10-01T10:27:01.240Z,99010.94
2022-10-01T10:29:32.928Z,99003.09
2022-10-01T10:32:02.938Z,99004.00
2022-10-01T10:34:34.128Z,99001.56
2022-10-01T10:37:05.088Z,99006.84
2022-10-01T10:39:35.082Z,99002.47
2022-10-01T10:42:04.084Z,99004.28
2022-10-01T10:44:36.246Z,98997.38
2022-10-01T10:47:10.216Z,98992.34
2022-10-01T10:49:57.524Z,99004.59
2022-10-01T10:52:36.271Z,99000.25
2022-10-01T10:55:23.182Z,98991.50
2022-10-01T10:57:52.355Z,98987.03
2022-10-01T11:00:25.633Z,98980.84
2022-10-01T11:02:57.613Z,98978.22
2022-10-01T11:05:26.448Z,98974.63
2022-10-01T11:07:55.599Z,98979.72
2022-10-01T11:10:28.496Z,98972.69
2022-10-01T11:13:07.474Z,98977.91
2022-10-01T11:15:34.201Z,98974.41
2022-10-01T11:18:09.455Z,98973.44
2022-10-01T11:20:36.270Z,98968.97
2022-10-01T11:23:12.141Z,98963.66
2022-10-01T11:25:42.075Z,98964.38
2022-10-01T11:28:21.331Z,98967.81
2022-10-01T11:30:54.368Z,98961.66
2022-10-01T11:33:33.039Z,98956.22
2022-10-01T11:36:24.925Z,98948.25
2022-10-01T11:39:11.836Z,98957.63
2022-10-01T11:41:44.776Z,98950.31
2022-10-01T11:44:14.217Z,98944.25
2022-10-01T11:47:04.984Z,98946.47
2022-10-01T11:49:32.009Z,98937.63
2022-10-01T11:52:10.621Z,98932.06
2022-10-01T11:54:43.225Z,98935.38
2022-10-01T11:57:32.950Z,98922.16
2022-10-01T12:00:04.239Z,98921.19
2022-10-01T12:02:40.452Z,98925.22
2022-10-01T12:05:28.434Z,98926.00
2022-10-01T12:08:10.203Z,98920.00
2022-10-01T12:10:55.369Z,98922.75
2022-10-01T12:13:32.840Z,98914.38
2022-10-01T12:16:08.678Z,98909.94
2022-10-01T12:19:13.977Z,98897.84
2022-10-01T12:21:53.173Z,98901.38
2022-10-01T12:24:27.306Z,98892.78
2022-10-01T12:27:05.035Z,98889.28
2022-10-01T12:29:49.755Z,98898.25
2022-10-01T12:32:19.808Z,98898.25
2022-10-01T12:34:55.576Z,98895.50
2022-10-01T12:37:34.456Z,98888.59
2022-10-01T12:40:21.330Z,98892.84
2022-10-01T12:42:53.669Z,98889.19
2022-10-01T12:45:38.910Z,98883.81
2022-10-01T12:48:11.551Z,98884.50
2022-10-01T12:50:40.987Z,98882.78
2022-10-01T12:53:22.512Z,98886.31
2022-10-01T12:56:07.948Z,98879.38
2022-10-01T12:58:40.544Z,98881.09
2022-10-01T13:01:14.193Z,98873.44
2022-10-01T13:03:43.722Z,98881.31
2022-10-01T13:06:10.284Z,98870.06
2022-10-01T13:08:54.900Z,98870.75
2022-10-01T13:11:28.265Z,98853.16
2022-10-01T13:13:55.634Z,98847.31
2022-10-01T13:16:30.167Z,98845.84
2022-10-01T13:18:59.524Z,98842.72
2022-10-01T13:21:30.481Z,98845.78
2022-10-01T13:24:01.197Z,98842.91
2022-10-01T13:26:44.855Z,98844.94
2022-10-01T13:29:14.709Z,98845.56
2022-10-01T13:31:57.818Z,98840.22
2022-10-01T13:34:27.289Z,98844.94
2022-10-01T13:36:53.977Z,98846.84
2022-10-01T13:39:22.196Z,98844.25
2022-10-01T13:41:50.566Z,98846.25
2022-10-01T13:44:23.283Z,98848.19
2022-10-01T13:46:52.315Z,98850.34
2022-10-01T13:49:30.091Z,98847.16
2022-10-01T13:51:57.429Z,98847.31
2022-10-01T13:54:36.084Z,98840.69
2022-10-01T13:57:10.025Z,98838.91
2022-10-01T13:59:37.356Z,98838.13
2022-10-01T14:02:23.978Z,98833.00
2022-10-01T14:04:51.054Z,98834.09
2022-10-01T14:07:19.514Z,98839.31
2022-10-01T14:09:48.713Z,98829.72
2022-10-01T14:12:39.795Z,98828.13
2022-10-01T14:15:47.104Z,98823.03
2022-10-01T14:18:19.153Z,98812.72
2022-10-01T14:21:06.026Z,98801.41
2022-10-01T14:23:38.801Z,98797.03
2022-10-01T14:26:05.503Z,98796.13
2022-10-01T14:28:44.008Z,98784.75
2022-10-01T14:31:19.628Z,98770.78
2022-10-01T14:33:52.129Z,98770.78
2022-10-01T14:36:29.613Z,98764.69
2022-10-01T14:39:14.376Z,98762.16
2022-10-01T14:41:41.113Z,98770.91
2022-10-01T14:44:22.177Z,98770.91
2022-10-01T14:46:52.569Z,98770.91
2022-10-01T14:49:29.704Z,98776.34
2022-10-01T14:51:59.561Z,98774.78
2022-10-01T14:54:26.936Z,98774.00
2022-10-01T14:56:55.286Z,98765.25
2022-10-01T14:59:35.511Z,98766.94
2022-10-01T15:02:03.551Z,98757.41
2022-10-01T15:04:30.368Z,98755.72
2022-10-01T15:07:03.081Z,98750.59
2022-10-01T15:09:30.146Z,98750.59
2022-10-01T15:11:56.921Z,98747.09
2022-10-01T15:14:24.921Z,98747.09
2022-10-01T15:16:51.977Z,98733.22
2022-10-01T15:19:20.517Z,98734.88
2022-10-01T15:21:47.111Z,98725.16
2022-10-01T15:24:33.992Z,98718.00
2022-10-01T15:27:00.957Z,98711.72
2022-10-01T15:29:28.018Z,98706.22
2022-10-01T15:31:56.734Z,98705.34
2022-10-01T15:34:25.702Z,98706.38
2022-10-01T15:36:52.523Z,98698.00
2022-10-01T15:39:32.987Z,98696.66
2022-10-01T15:42:01.972Z,98693.50
2022-10-01T15:44:41.809Z,98686.72
2022-10-01T15:47:34.554Z,98686.94
2022-10-01T15:50:02.478Z,98683.66
2022-10-01T15:52:51.596Z,98673.94
2022-10-01T15:55:21.701Z,98660.47
2022-10-01T15:57:57.196Z,98656.84
2022-10-01T16:00:25.930Z,98655.97
2022-10-01T16:02:52.710Z,98656.22
2022-10-01T16:05:21.651Z,98650.16
2022-10-01T16:07:49.852Z,98647.47
2022-10-01T16:10:25.681Z,98656.69
2022-10-01T16:12:52.364Z,98646.97
2022-10-01T16:15:29.037Z,98646.91
2022-10-01T16:17:57.265Z,98638.22
2022-10-01T16:20:38.089Z,98638.34
2022-10-01T16:23:23.199Z,98629.00
2022-10-01T16:25:49.803Z,98613.44
2022-10-01T16:28:27.739Z,98614.31
2022-10-01T16:30:55.239Z,98611.78
2022-10-01T16:33:21.850Z,98604.84
2022-10-01T16:35:48.826Z,98605.75
2022-10-01T16:38:15.450Z,98597.94
2022-10-01T16:40:43.249Z,98604.84
2022-10-01T16:43:20.071Z,98600.53
2022-10-01T16:45:46.909Z,98589.28
2022-10-01T16:48:15.731Z,98587.78
2022-10-01T16:50:43.170Z,98587.84
2022-10-01T16:53:13.874Z,98585.31
2022-10-01T16:55:40.961Z,98582.69
2022-10-01T16:58:08.071Z,98574.00
2022-10-01T17:00:37.239Z,98569.66
2022-10-01T17:03:06.151Z,98572.31
2022-10-01T17:05:35.715Z,98561.88
2022-10-01T17:08:05.022Z,98558.38
2022-10-01T17:10:35.832Z,98551.66
2022-10-01T17:13:03.707Z,98545.75
2022-10-01T17:15:32.214Z,98545.03
2022-10-01T17:17:59.236Z,98534.78
2022-10-01T17:20:28.680Z,98532.22
2022-10-01T17:22:56.058Z,98525.44
2022-10-01T17:25:24.101Z,98521.19
2022-10-01T17:27:51.106Z,98518.56
2022-10-01T17:30:17.997Z,98513.31
2022-10-01T17:32:44.892Z,98508.06
2022-10-01T17:35:12.500Z,98501.03
2022-10-01T17:37:39.685Z,98500.91
2022-10-01T17:40:07.436Z,98493.03
2022-10-01T17:42:35.597Z,98486.88
2022-10-01T17:45:03.211Z,98480.63
2022-10-01T17:47:30.621Z,98478.94
2022-10-01T17:49:57.192Z,98478.97
2022-10-01T17:52:23.790Z,98474.69
2022-10-01T17:54:50.457Z,98472.03
2022-10-01T17:57:17.386Z,98463.16
2022-10-01T17:59:44.016Z,98463.16
2022-10-01T18:02:36.549Z,98452.69
2022-10-01T18:04:59.238Z,98438.63
2022-10-01T18:07:27.144Z,98436.06
2022-10-01T18:09:53.961Z,98426.53
2022-10-01T18:12:20.622Z,98416.91
2022-10-01T18:14:47.437Z,98427.44
2022-10-01T18:17:14.061Z,98423.06
2022-10-01T18:19:56.054Z,98415.31
2022-10-01T18:22:22.744Z,98411.84
2022-10-01T18:24:49.384Z,98404.88
2022-10-01T18:27:16.457Z,98400.38
2022-10-01T18:29:43.342Z,98386.59
2022-10-01T18:32:26.538Z,98380.69
2022-10-01T18:34:57.859Z,98370.59
2022-10-01T18:37:28.496Z,98377.81
2022-10-01T18:40:00.210Z,98385.88
2022-10-01T18:42:46.071Z,98388.94
2022-10-01T18:45:39.185Z,98401.38
2022-10-01T18:48:24.255Z,98407.75
2022-10-01T18:50:50.811Z,98395.88
2022-10-01T18:53:24.482Z,98421.19
2022-10-01T18:56:08.472Z,98423.00
2022-10-01T18:58:53.354Z,98395.44
2022-10-01T19:01:50.443Z,98387.66
2022-10-01T19:04:17.105Z,98384.50
2022-10-01T19:06:52.565Z,98377.72
2022-10-01T19:09:19.171Z,98384.66
2022-10-01T19:11:48.781Z,98391.59
2022-10-01T19:14:33.970Z,98395.91
2022-10-01T19:17:09.791Z,98385.59
2022-10-01T19:19:55.287Z,98366.50
2022-10-01T19:22:21.836Z,98379.81
2022-10-01T19:25:06.522Z,98382.94
2022-10-01T19:27:36.049Z,98373.63
2022-10-01T19:30:05.701Z,98363.19
2022-10-01T19:32:44.178Z,98352.31
2022-10-01T19:35:22.481Z,98349.94
2022-10-01T19:37:57.886Z,98343.28
2022-10-01T19:40:33.697Z,98347.03
2022-10-01T19:43:16.421Z,98334.47
2022-10-01T19:45:43.002Z,98326.75
2022-10-01T19:48:15.694Z,98325.28
2022-10-01T19:50:44.372Z,98321.22
2022-10-01T19:53:19.119Z,98315.28
2022-10-01T19:55:47.077Z,98321.75
2022-10-01T19:58:18.583Z,98314.09
2022-10-01T20:00:52.306Z,98307.22
2022-10-01T20:03:23.593Z,98305.63
2022-10-01T20:05:53.705Z,98300.41
2022-10-01T20:08:24.917Z,98297.03
2022-10-01T20:10:53.990Z,98290.16
2022-10-01T20:13:29.640Z,98291.81
2022-10-01T20:16:15.301Z,98277.13
2022-10-01T20:19:19.715Z,98276.22
2022-10-01T20:22:10.960Z,98268.34
2022-10-01T20:24:37.655Z,98276.06
2022-10-01T20:27:11.699Z,98270.72
2022-10-01T20:29:58.230Z,98277.56
2022-10-01T20:32:41.511Z,98267.06
2022-10-01T20:35:08.151Z,98269.53
2022-10-01T20:37:53.838Z,98270.44
2022-10-01T20:40:26.610Z,98272.84
2022-10-01T20:43:02.124Z,98270.19
2022-10-01T20:45:31.386Z,98272.69
2022-10-01T20:48:01.999Z,98263.06
2022-10-01T20:50:32.920Z,98263.84
2022-10-01T20:53:16.285Z,98261.13
2022-10-01T20:55:47.508Z,98265.31
2022-10-01T20:58:16.354Z,98256.53
2022-10-01T21:00:45.873Z,98259.06
2022-10-01T21:03:50.896Z,98256.41
2022-10-01T21:06:23.226Z,98253.75
2022-10-01T21:08:50.507Z,98254.53
2022-10-01T21:11:40.259Z,98257.13
2022-10-01T21:14:14.556Z,98260.50
2022-10-01T21:16:56.522Z,98251.81
2022-10-01T21:19:41.823Z,98251.56
2022-10-01T21:22:11.162Z,98252.53
2022-10-01T21:24:37.697Z,98259.50
2022-10-01T21:27:21.139Z,98242.97
2022-10-01T21:29:47.666Z,98255.19
2022-10-01T21:32:17.088Z,98252.47
2022-10-01T21:34:55.645Z,98253.25
2022-10-01T21:37:39.540Z,98248.94
2022-10-01T21:40:32.936Z,98257.03
2022-10-01T21:43:02.869Z,98260.50
2022-10-01T21:45:39.872Z,98250.09
2022-10-01T21:48:06.532Z,98258.84
2022-10-01T21:50:38.951Z,98265.72
2022-10-01T21:53:08.282Z,98252.78
2022-10-01T21:55:37.580Z,98246.84
2022-10-01T21:58:17.347Z,98265.19
2022-10-01T22:00:52.327Z,98266.09
2022-10-01T22:03:34.068Z,98261.13
2022-10-01T22:06:03.426Z,98262.94
2022-10-01T22:08:30.012Z,98263.78
2022-10-01T22:10:58.987Z,98276.88
2022-10-01T22:13:28.992Z,98269.97
2022-10-01T22:15:58.305Z,98275.28
2022-10-01T22:18:36.781Z,98278.78
2022-10-01T22:21:07.145Z,98273.59
2022-10-01T22:23:37.228Z,98275.41
2022-10-01T22:26:08.798Z,98275.50
2022-10-01T22:28:37.801Z,98273.81
2022-10-01T22:31:06.117Z,98290.38
2022-10-01T22:33:35.190Z,98276.59
2022-10-01T22:36:11.053Z,98289.81
2022-10-01T22:38:44.652Z,98283.81
2022-10-01T22:41:14.062Z,98285.69
2022-10-01T22:43:43.021Z,98271.00
2022-10-01T22:46:13.208Z,98305.75
2022-10-01T22:48:42.673Z,98297.38
2022-10-01T22:51:12.363Z,98298.50
2022-10-01T22:53:38.915Z,98296.00
2022-10-01T22:56:06.701Z,98284.91
2022-10-01T22:58:51.956Z,98292.94
2022-10-01T23:01:37.213Z,98293.97
2022-10-01T23:04:22.335Z,98293.28
2022-10-01T23:06:57.981Z,98292.63
2022-10-01T23:09:24.520Z,98296.25
2022-10-01T23:11:51.120Z,98283.41
2022-10-01T23:14:37.196Z,98283.63
2022-10-01T23:17:10.764Z,98297.50
2022-10-01T23:19:56.232Z,98289.00
2022-10-01T23:22:22.848Z,98296.63
2022-10-01T23:25:01.457Z,98302.94
2022-10-01T23:27:44.932Z,98291.00
2022-10-01T23:30:14.332Z,98294.59
2022-10-01T23:32:47.052Z,98292.88
2022-10-01T23:35:20.920Z,98292.16
2022-10-01T23:37:58.119Z,98298.50
2022-10-01T23:40:36.552Z,98303.81
2022-10-01T23:43:12.123Z,98315.91
2022-10-01T23:45:48.050Z,98312.09
2022-10-01T23:48:28.039Z,98306.22
2022-10-01T23:50:58.858Z,98309.91
2022-10-01T23:53:27.802Z,98309.91
2022-10-01T23:56:21.037Z,98304.09
2022-10-01T23:58:54.667Z,98303.38
